sensor_id;sensor_type;location;lat;lon;timestamp;temperature;humidity
5130;DHT22;2583;50.946;6.954;2023-03-25T00:02:25;11.30;94.20
5130;DHT22;2583;50.946;6.954;2023-03-25T00:04:56;11.20;94.50
5130;DHT22;2583;50.946;6.954;2023-03-25T00:07:23;11.20;95.30
5130;DHT22;2583;50.946;6.954;2023-03-25T00:09:49;11.10;95.90
5130;DHT22;2583;50.946;6.954;2023-03-25T00:12:16;11.10;96.30
5130;DHT22;2583;50.946;6.954;2023-03-25T00:14:45;11.00;96.30
5130;DHT22;2583;50.946;6.954;2023-03-25T00:17:21;11.00;96.30
5130;DHT22;2583;50.946;6.954;2023-03-25T00:19:49;10.90;96.30
5130;DHT22;2583;50.946;6.954;2023-03-25T00:22:17;11.00;96.00
5130;DHT22;2583;50.946;6.954;2023-03-25T00:24:44;11.00;96.00
5130;DHT22;2583;50.946;6.954;2023-03-25T00:27:11;11.00;95.60
5130;DHT22;2583;50.946;6.954;2023-03-25T00:29:40;11.00;95.00
5130;DHT22;2583;50.946;6.954;2023-03-25T00:32:08;11.00;95.00
5130;DHT22;2583;50.946;6.954;2023-03-25T00:34:36;11.10;94.20
5130;DHT22;2583;50.946;6.954;2023-03-25T00:37:14;11.00;92.80
5130;DHT22;2583;50.946;6.954;2023-03-25T00:39:47;10.90;92.10
5130;DHT22;2583;50.946;6.954;2023-03-25T00:42:15;11.00;92.00
5130;DHT22;2583;50.946;6.954;2023-03-25T00:44:43;11.00;91.60
5130;DHT22;2583;50.946;6.954;2023-03-25T00:47:09;11.10;91.80
5130;DHT22;2583;50.946;6.954;2023-03-25T00:49:43;11.00;91.30
5130;DHT22;2583;50.946;6.954;2023-03-25T00:52:10;11.10;91.40
5130;DHT22;2583;50.946;6.954;2023-03-25T00:54:36;11.00;90.60
5130;DHT22;2583;50.946;6.954;2023-03-25T00:57:03;11.10;90.70
5130;DHT22;2583;50.946;6.954;2023-03-25T00:59:30;11.00;89.80
5130;DHT22;2583;50.946;6.954;2023-03-25T01:01:57;11.00;90.40
5130;DHT22;2583;50.946;6.954;2023-03-25T01:04:24;11.00;90.10
5130;DHT22;2583;50.946;6.954;2023-03-25T01:06:51;11.10;90.70
5130;DHT22;2583;50.946;6.954;2023-03-25T01:09:19;11.10;90.40
5130;DHT22;2583;50.946;6.954;2023-03-25T01:11:47;11.10;90.70
5130;DHT22;2583;50.946;6.954;2023-03-25T01:14:17;11.10;91.00
5130;DHT22;2583;50.946;6.954;2023-03-25T01:16:44;11.10;90.60
5130;DHT22;2583;50.946;6.954;2023-03-25T01:19:12;11.10;90.80
5130;DHT22;2583;50.946;6.954;2023-03-25T01:21:40;11.10;90.80
5130;DHT22;2583;50.946;6.954;2023-03-25T01:24:09;11.10;91.50
5130;DHT22;2583;50.946;6.954;2023-03-25T01:26:37;11.10;90.60
5130;DHT22;2583;50.946;6.954;2023-03-25T01:29:06;11.00;89.50
5130;DHT22;2583;50.946;6.954;2023-03-25T01:31:33;11.00;90.20
5130;DHT22;2583;50.946;6.954;2023-03-25T01:34:00;11.00;90.10
5130;DHT22;2583;50.946;6.954;2023-03-25T01:36:27;11.10;90.60
5130;DHT22;2583;50.946;6.954;2023-03-25T01:38:58;11.10;90.30
5130;DHT22;2583;50.946;6.954;2023-03-25T01:41:26;11.00;87.00
5130;DHT22;2583;50.946;6.954;2023-03-25T01:46:45;11.00;87.30
5130;DHT22;2583;50.946;6.954;2023-03-25T01:49:22;11.10;88.00
5130;DHT22;2583;50.946;6.954;2023-03-25T01:51:59;11.00;86.90
5130;DHT22;2583;50.946;6.954;2023-03-25T01:54:28;11.10;86.00
5130;DHT22;2583;50.946;6.954;2023-03-25T01:56:55;11.10;85.50
5130;DHT22;2583;50.946;6.954;2023-03-25T01:59:24;11.00;87.00
5130;DHT22;2583;50.946;6.954;2023-03-25T02:01:55;11.00;90.50
5130;DHT22;2583;50.946;6.954;2023-03-25T02:04:34;10.90;94.20
5130;DHT22;2583;50.946;6.954;2023-03-25T02:07:05;10.90;96.80
5130;DHT22;2583;50.946;6.954;2023-03-25T02:09:34;10.90;96.40
5130;DHT22;2583;50.946;6.954;2023-03-25T02:12:01;10.80;96.60
5130;DHT22;2583;50.946;6.954;2023-03-25T02:14:31;10.80;98.20
5130;DHT22;2583;50.946;6.954;2023-03-25T02:23:06;10.70;99.90
5130;DHT22;2583;50.946;6.954;2023-03-25T02:28:49;10.60;99.90
5130;DHT22;2583;50.946;6.954;2023-03-25T02:42:33;10.10;99.90
5130;DHT22;2583;50.946;6.954;2023-03-25T02:45:50;10.10;99.90
5130;DHT22;2583;50.946;6.954;2023-03-25T02:48:03;10.10;99.90
5130;DHT22;2583;50.946;6.954;2023-03-25T02:50:42;10.10;99.90
5130;DHT22;2583;50.946;6.954;2023-03-25T02:53:13;10.00;99.90
5130;DHT22;2583;50.946;6.954;2023-03-25T02:55:43;10.10;99.90
5130;DHT22;2583;50.946;6.954;2023-03-25T02:58:12;10.00;99.90
5130;DHT22;2583;50.946;6.954;2023-03-25T03:00:42;10.00;99.90
5130;DHT22;2583;50.946;6.954;2023-03-25T03:03:09;10.10;99.90
5130;DHT22;2583;50.946;6.954;2023-03-25T03:05:45;10.00;99.90
5130;DHT22;2583;50.946;6.954;2023-03-25T03:11:13;10.10;99.90
5130;DHT22;2583;50.946;6.954;2023-03-25T03:19:31;10.20;99.90
5130;DHT22;2583;50.946;6.954;2023-03-25T03:22:07;10.20;99.90
5130;DHT22;2583;50.946;6.954;2023-03-25T03:25:00;10.20;99.90
5130;DHT22;2583;50.946;6.954;2023-03-25T03:27:29;10.20;99.90
5130;DHT22;2583;50.946;6.954;2023-03-25T03:30:14;10.30;99.90
5130;DHT22;2583;50.946;6.954;2023-03-25T03:32:58;10.20;99.90
5130;DHT22;2583;50.946;6.954;2023-03-25T03:35:32;10.20;99.90
5130;DHT22;2583;50.946;6.954;2023-03-25T03:38:03;10.20;99.90
5130;DHT22;2583;50.946;6.954;2023-03-25T03:40:35;10.30;99.90
5130;DHT22;2583;50.946;6.954;2023-03-25T03:43:06;10.30;99.90
5130;DHT22;2583;50.946;6.954;2023-03-25T03:45:55;10.30;99.90
5130;DHT22;2583;50.946;6.954;2023-03-25T03:48:30;10.30;99.90
5130;DHT22;2583;50.946;6.954;2023-03-25T03:51:13;10.30;99.90
5130;DHT22;2583;50.946;6.954;2023-03-25T03:53:53;10.20;99.90
5130;DHT22;2583;50.946;6.954;2023-03-25T03:56:32;10.10;99.90
5130;DHT22;2583;50.946;6.954;2023-03-25T03:59:09;10.00;99.90
5130;DHT22;2583;50.946;6.954;2023-03-25T04:01:41;10.00;99.90
5130;DHT22;2583;50.946;6.954;2023-03-25T04:04:17;10.00;99.90
5130;DHT22;2583;50.946;6.954;2023-03-25T04:06:54;10.00;99.90
5130;DHT22;2583;50.946;6.954;2023-03-25T04:14:37;10.00;99.90
5130;DHT22;2583;50.946;6.954;2023-03-25T04:17:05;10.00;99.90
5130;DHT22;2583;50.946;6.954;2023-03-25T04:19:32;10.00;99.90
5130;DHT22;2583;50.946;6.954;2023-03-25T04:22:03;10.10;99.90
5130;DHT22;2583;50.946;6.954;2023-03-25T04:24:30;10.10;99.50
5130;DHT22;2583;50.946;6.954;2023-03-25T04:26:58;10.10;99.80
5130;DHT22;2583;50.946;6.954;2023-03-25T04:29:30;10.10;99.90
5130;DHT22;2583;50.946;6.954;2023-03-25T04:31:58;10.10;99.00
5130;DHT22;2583;50.946;6.954;2023-03-25T04:34:26;10.20;97.90
5130;DHT22;2583;50.946;6.954;2023-03-25T04:36:53;10.20;97.10
5130;DHT22;2583;50.946;6.954;2023-03-25T04:39:23;10.20;98.50
5130;DHT22;2583;50.946;6.954;2023-03-25T04:41:51;10.20;97.70
5130;DHT22;2583;50.946;6.954;2023-03-25T04:44:29;10.10;97.10
5130;DHT22;2583;50.946;6.954;2023-03-25T04:47:01;10.20;96.90
5130;DHT22;2583;50.946;6.954;2023-03-25T04:49:28;10.20;96.90
5130;DHT22;2583;50.946;6.954;2023-03-25T04:51:54;10.20;97.40
5130;DHT22;2583;50.946;6.954;2023-03-25T04:54:22;10.20;96.30
5130;DHT22;2583;50.946;6.954;2023-03-25T04:56:50;10.20;96.90
5130;DHT22;2583;50.946;6.954;2023-03-25T04:59:19;10.10;96.50
5130;DHT22;2583;50.946;6.954;2023-03-25T05:01:47;10.20;96.40
5130;DHT22;2583;50.946;6.954;2023-03-25T05:04:18;10.20;96.50
5130;DHT22;2583;50.946;6.954;2023-03-25T05:06:47;10.20;95.90
5130;DHT22;2583;50.946;6.954;2023-03-25T05:09:18;10.30;95.50
5130;DHT22;2583;50.946;6.954;2023-03-25T05:11:49;10.20;95.40
5130;DHT22;2583;50.946;6.954;2023-03-25T05:14:18;10.20;94.10
5130;DHT22;2583;50.946;6.954;2023-03-25T05:16:45;10.20;94.60
5130;DHT22;2583;50.946;6.954;2023-03-25T05:19:14;10.30;94.80
5130;DHT22;2583;50.946;6.954;2023-03-25T05:21:41;10.30;94.80
5130;DHT22;2583;50.946;6.954;2023-03-25T05:24:10;10.30;93.00
5130;DHT22;2583;50.946;6.954;2023-03-25T05:26:38;10.20;93.20
5130;DHT22;2583;50.946;6.954;2023-03-25T05:29:08;10.30;92.50
5130;DHT22;2583;50.946;6.954;2023-03-25T05:31:35;10.30;92.70
5130;DHT22;2583;50.946;6.954;2023-03-25T05:34:02;10.30;92.50
5130;DHT22;2583;50.946;6.954;2023-03-25T05:36:32;10.40;91.70
5130;DHT22;2583;50.946;6.954;2023-03-25T05:38:59;10.40;93.00
5130;DHT22;2583;50.946;6.954;2023-03-25T05:41:27;10.30;91.70
5130;DHT22;2583;50.946;6.954;2023-03-25T05:43:59;10.40;92.60
5130;DHT22;2583;50.946;6.954;2023-03-25T05:46:27;10.40;92.20
5130;DHT22;2583;50.946;6.954;2023-03-25T05:48:57;10.40;91.90
5130;DHT22;2583;50.946;6.954;2023-03-25T05:51:28;10.40;92.20
5130;DHT22;2583;50.946;6.954;2023-03-25T05:53:55;10.40;92.30
5130;DHT22;2583;50.946;6.954;2023-03-25T05:56:22;10.40;91.70
5130;DHT22;2583;50.946;6.954;2023-03-25T05:58:51;10.40;92.10
5130;DHT22;2583;50.946;6.954;2023-03-25T06:01:19;10.40;91.30
5130;DHT22;2583;50.946;6.954;2023-03-25T06:03:59;10.40;91.50
5130;DHT22;2583;50.946;6.954;2023-03-25T06:06:27;10.50;91.50
5130;DHT22;2583;50.946;6.954;2023-03-25T06:08:55;10.50;92.00
5130;DHT22;2583;50.946;6.954;2023-03-25T06:11:21;10.50;90.20
5130;DHT22;2583;50.946;6.954;2023-03-25T06:13:48;10.40;90.50
5130;DHT22;2583;50.946;6.954;2023-03-25T06:16:20;10.50;90.80
5130;DHT22;2583;50.946;6.954;2023-03-25T06:18:49;10.50;90.40
5130;DHT22;2583;50.946;6.954;2023-03-25T06:21:19;10.50;91.80
5130;DHT22;2583;50.946;6.954;2023-03-25T06:23:46;10.50;91.70
5130;DHT22;2583;50.946;6.954;2023-03-25T06:26:15;10.50;92.00
5130;DHT22;2583;50.946;6.954;2023-03-25T06:28:43;10.50;90.20
5130;DHT22;2583;50.946;6.954;2023-03-25T06:31:18;10.60;91.20
5130;DHT22;2583;50.946;6.954;2023-03-25T06:33:47;10.60;90.10
5130;DHT22;2583;50.946;6.954;2023-03-25T06:36:15;10.50;87.70
5130;DHT22;2583;50.946;6.954;2023-03-25T06:38:45;10.60;88.10
5130;DHT22;2583;50.946;6.954;2023-03-25T06:41:12;10.60;87.90
5130;DHT22;2583;50.946;6.954;2023-03-25T06:43:46;10.60;85.10
5130;DHT22;2583;50.946;6.954;2023-03-25T06:46:13;10.70;84.00
5130;DHT22;2583;50.946;6.954;2023-03-25T06:48:40;10.70;83.30
5130;DHT22;2583;50.946;6.954;2023-03-25T06:51:07;10.80;83.30
5130;DHT22;2583;50.946;6.954;2023-03-25T06:53:34;10.90;81.50
5130;DHT22;2583;50.946;6.954;2023-03-25T06:56:01;10.90;79.20
5130;DHT22;2583;50.946;6.954;2023-03-25T06:58:28;11.00;80.50
5130;DHT22;2583;50.946;6.954;2023-03-25T07:01:01;10.90;83.20
5130;DHT22;2583;50.946;6.954;2023-03-25T07:03:35;10.90;84.70
5130;DHT22;2583;50.946;6.954;2023-03-25T07:06:03;10.90;90.40
5130;DHT22;2583;50.946;6.954;2023-03-25T07:08:31;10.80;94.70
5130;DHT22;2583;50.946;6.954;2023-03-25T07:11:03;10.60;97.90
5130;DHT22;2583;50.946;6.954;2023-03-25T07:13:31;10.70;98.00
5130;DHT22;2583;50.946;6.954;2023-03-25T07:15:58;10.70;99.00
5130;DHT22;2583;50.946;6.954;2023-03-25T07:18:25;10.70;99.70
5130;DHT22;2583;50.946;6.954;2023-03-25T07:20:52;10.70;99.90
5130;DHT22;2583;50.946;6.954;2023-03-25T07:23:19;10.60;98.10
5130;DHT22;2583;50.946;6.954;2023-03-25T07:25:46;10.60;99.30
5130;DHT22;2583;50.946;6.954;2023-03-25T07:28:13;10.60;99.00
5130;DHT22;2583;50.946;6.954;2023-03-25T07:30:41;10.50;98.70
5130;DHT22;2583;50.946;6.954;2023-03-25T07:33:07;10.60;99.20
5130;DHT22;2583;50.946;6.954;2023-03-25T07:35:34;10.60;98.90
5130;DHT22;2583;50.946;6.954;2023-03-25T07:38:01;10.60;99.90
5130;DHT22;2583;50.946;6.954;2023-03-25T07:40:28;10.70;99.80
5130;DHT22;2583;50.946;6.954;2023-03-25T07:42:55;10.70;99.80
5130;DHT22;2583;50.946;6.954;2023-03-25T07:45:22;10.70;98.70
5130;DHT22;2583;50.946;6.954;2023-03-25T07:47:49;10.80;99.50
5130;DHT22;2583;50.946;6.954;2023-03-25T07:50:18;10.70;98.30
5130;DHT22;2583;50.946;6.954;2023-03-25T07:52:45;10.80;98.60
5130;DHT22;2583;50.946;6.954;2023-03-25T07:55:12;10.60;97.20
5130;DHT22;2583;50.946;6.954;2023-03-25T07:57:40;10.60;97.30
5130;DHT22;2583;50.946;6.954;2023-03-25T08:00:08;10.60;97.30
5130;DHT22;2583;50.946;6.954;2023-03-25T08:02:36;10.70;97.10
5130;DHT22;2583;50.946;6.954;2023-03-25T08:05:03;10.60;97.40
5130;DHT22;2583;50.946;6.954;2023-03-25T08:07:32;10.60;97.30
5130;DHT22;2583;50.946;6.954;2023-03-25T08:09:59;10.70;97.90
5130;DHT22;2583;50.946;6.954;2023-03-25T08:12:26;10.70;97.30
5130;DHT22;2583;50.946;6.954;2023-03-25T08:14:52;10.70;97.10
5130;DHT22;2583;50.946;6.954;2023-03-25T08:17:19;10.80;97.10
5130;DHT22;2583;50.946;6.954;2023-03-25T08:19:46;10.80;97.20
5130;DHT22;2583;50.946;6.954;2023-03-25T08:22:13;10.80;96.00
5130;DHT22;2583;50.946;6.954;2023-03-25T08:24:40;10.70;96.30
5130;DHT22;2583;50.946;6.954;2023-03-25T08:27:07;10.80;95.90
5130;DHT22;2583;50.946;6.954;2023-03-25T08:29:42;10.90;94.40
5130;DHT22;2583;50.946;6.954;2023-03-25T08:32:09;11.00;94.00
5130;DHT22;2583;50.946;6.954;2023-03-25T08:34:36;11.10;92.50
5130;DHT22;2583;50.946;6.954;2023-03-25T08:37:05;11.40;90.90
5130;DHT22;2583;50.946;6.954;2023-03-25T08:39:36;11.60;82.50
5130;DHT22;2583;50.946;6.954;2023-03-25T08:42:10;11.60;78.20
5130;DHT22;2583;50.946;6.954;2023-03-25T08:44:38;11.50;76.20
5130;DHT22;2583;50.946;6.954;2023-03-25T08:47:05;11.40;75.60
5130;DHT22;2583;50.946;6.954;2023-03-25T08:49:31;11.30;74.50
5130;DHT22;2583;50.946;6.954;2023-03-25T08:51:58;11.40;76.10
5130;DHT22;2583;50.946;6.954;2023-03-25T08:54:27;11.40;75.00
5130;DHT22;2583;50.946;6.954;2023-03-25T08:56:55;11.40;76.50
5130;DHT22;2583;50.946;6.954;2023-03-25T08:59:21;11.50;72.80
5130;DHT22;2583;50.946;6.954;2023-03-25T09:01:48;11.40;70.40
5130;DHT22;2583;50.946;6.954;2023-03-25T09:04:15;11.30;71.00
5130;DHT22;2583;50.946;6.954;2023-03-25T09:06:42;11.40;72.70
5130;DHT22;2583;50.946;6.954;2023-03-25T09:09:29;11.40;72.40
5130;DHT22;2583;50.946;6.954;2023-03-25T09:11:56;11.50;69.60
5130;DHT22;2583;50.946;6.954;2023-03-25T09:14:23;11.40;68.10
5130;DHT22;2583;50.946;6.954;2023-03-25T09:16:49;11.30;66.70
5130;DHT22;2583;50.946;6.954;2023-03-25T09:19:16;11.30;66.80
5130;DHT22;2583;50.946;6.954;2023-03-25T09:21:43;11.40;66.60
5130;DHT22;2583;50.946;6.954;2023-03-25T09:24:10;11.40;63.20
5130;DHT22;2583;50.946;6.954;2023-03-25T09:26:38;11.40;59.70
5130;DHT22;2583;50.946;6.954;2023-03-25T09:29:05;11.40;59.60
5130;DHT22;2583;50.946;6.954;2023-03-25T09:31:32;11.50;60.10
5130;DHT22;2583;50.946;6.954;2023-03-25T09:34:00;11.60;60.10
5130;DHT22;2583;50.946;6.954;2023-03-25T09:36:27;11.70;58.90
5130;DHT22;2583;50.946;6.954;2023-03-25T09:38:54;11.80;59.20
5130;DHT22;2583;50.946;6.954;2023-03-25T09:47:02;11.90;56.10
5130;DHT22;2583;50.946;6.954;2023-03-25T09:49:39;11.90;54.40
5130;DHT22;2583;50.946;6.954;2023-03-25T09:52:15;11.90;53.90
5130;DHT22;2583;50.946;6.954;2023-03-25T09:54:49;11.90;52.50
5130;DHT22;2583;50.946;6.954;2023-03-25T09:57:25;12.00;51.30
5130;DHT22;2583;50.946;6.954;2023-03-25T09:59:53;12.10;51.20
5130;DHT22;2583;50.946;6.954;2023-03-25T10:02:27;12.10;50.20
5130;DHT22;2583;50.946;6.954;2023-03-25T10:14:02;12.10;52.90
5130;DHT22;2583;50.946;6.954;2023-03-25T10:22:03;11.90;53.00
5130;DHT22;2583;50.946;6.954;2023-03-25T10:27:30;12.00;52.70
5130;DHT22;2583;50.946;6.954;2023-03-25T10:30:13;12.10;52.70
5130;DHT22;2583;50.946;6.954;2023-03-25T10:32:47;12.30;54.60
5130;DHT22;2583;50.946;6.954;2023-03-25T10:35:20;12.40;54.50
5130;DHT22;2583;50.946;6.954;2023-03-25T10:37:50;12.50;53.50
5130;DHT22;2583;50.946;6.954;2023-03-25T10:40:28;12.70;52.20
5130;DHT22;2583;50.946;6.954;2023-03-25T10:45:42;13.40;49.70
5130;DHT22;2583;50.946;6.954;2023-03-25T10:48:28;13.50;47.90
5130;DHT22;2583;50.946;6.954;2023-03-25T10:51:09;13.60;46.40
5130;DHT22;2583;50.946;6.954;2023-03-25T10:53:37;13.80;45.70
5130;DHT22;2583;50.946;6.954;2023-03-25T10:56:09;13.90;44.40
5130;DHT22;2583;50.946;6.954;2023-03-25T10:58:40;13.70;43.00
5130;DHT22;2583;50.946;6.954;2023-03-25T11:01:14;13.50;43.50
5130;DHT22;2583;50.946;6.954;2023-03-25T11:03:42;13.40;43.50
5130;DHT22;2583;50.946;6.954;2023-03-25T11:06:26;13.30;44.70
5130;DHT22;2583;50.946;6.954;2023-03-25T11:09:26;13.00;53.20
5130;DHT22;2583;50.946;6.954;2023-03-25T11:12:00;13.00;62.20
5130;DHT22;2583;50.946;6.954;2023-03-25T11:14:29;12.90;59.20
5130;DHT22;2583;50.946;6.954;2023-03-25T11:17:01;13.00;52.90
5130;DHT22;2583;50.946;6.954;2023-03-25T11:22:00;13.10;50.80
5130;DHT22;2583;50.946;6.954;2023-03-25T11:24:33;13.10;50.90
5130;DHT22;2583;50.946;6.954;2023-03-25T11:27:00;13.20;50.70
5130;DHT22;2583;50.946;6.954;2023-03-25T11:29:28;13.20;49.10
5130;DHT22;2583;50.946;6.954;2023-03-25T11:32:07;13.30;47.80
5130;DHT22;2583;50.946;6.954;2023-03-25T11:34:38;13.40;45.70
5130;DHT22;2583;50.946;6.954;2023-03-25T11:37:16;13.60;44.80
5130;DHT22;2583;50.946;6.954;2023-03-25T11:39:51;13.60;44.20
5130;DHT22;2583;50.946;6.954;2023-03-25T11:42:34;13.40;44.20
5130;DHT22;2583;50.946;6.954;2023-03-25T11:45:03;13.20;44.40
5130;DHT22;2583;50.946;6.954;2023-03-25T11:47:37;13.30;46.30
5130;DHT22;2583;50.946;6.954;2023-03-25T11:50:06;13.30;43.50
5130;DHT22;2583;50.946;6.954;2023-03-25T11:52:43;13.50;42.40
5130;DHT22;2583;50.946;6.954;2023-03-25T11:55:27;13.60;40.40
5130;DHT22;2583;50.946;6.954;2023-03-25T11:57:58;13.80;39.30
5130;DHT22;2583;50.946;6.954;2023-03-25T12:00:37;13.70;37.40
5130;DHT22;2583;50.946;6.954;2023-03-25T12:03:25;13.70;38.40
5130;DHT22;2583;50.946;6.954;2023-03-25T12:06:02;13.80;38.00
5130;DHT22;2583;50.946;6.954;2023-03-25T12:09:05;13.70;38.50
5130;DHT22;2583;50.946;6.954;2023-03-25T12:15:07;13.60;38.00
5130;DHT22;2583;50.946;6.954;2023-03-25T12:18:08;13.60;37.20
5130;DHT22;2583;50.946;6.954;2023-03-25T12:23:19;13.40;37.00
5130;DHT22;2583;50.946;6.954;2023-03-25T12:37:11;13.90;34.40
5130;DHT22;2583;50.946;6.954;2023-03-25T12:42:55;14.10;33.10
5130;DHT22;2583;50.946;6.954;2023-03-25T12:45:40;14.40;32.60
5130;DHT22;2583;50.946;6.954;2023-03-25T12:51:10;14.30;29.70
5130;DHT22;2583;50.946;6.954;2023-03-25T12:53:47;14.50;30.40
5130;DHT22;2583;50.946;6.954;2023-03-25T13:04:47;15.00;27.80
5130;DHT22;2583;50.946;6.954;2023-03-25T13:07:20;14.80;27.90
5130;DHT22;2583;50.946;6.954;2023-03-25T13:10:12;14.70;29.00
5130;DHT22;2583;50.946;6.954;2023-03-25T13:12:50;14.90;29.10
5130;DHT22;2583;50.946;6.954;2023-03-25T13:15:48;14.90;28.50
5130;DHT22;2583;50.946;6.954;2023-03-25T13:18:19;14.90;28.00
5130;DHT22;2583;50.946;6.954;2023-03-25T13:20:59;14.70;27.70
5130;DHT22;2583;50.946;6.954;2023-03-25T13:23:38;14.50;28.10
5130;DHT22;2583;50.946;6.954;2023-03-25T13:26:07;14.40;28.60
5130;DHT22;2583;50.946;6.954;2023-03-25T13:28:42;14.50;28.80
5130;DHT22;2583;50.946;6.954;2023-03-25T13:31:35;14.40;28.40
5130;DHT22;2583;50.946;6.954;2023-03-25T13:37:33;14.00;30.10
5130;DHT22;2583;50.946;6.954;2023-03-25T13:42:58;13.50;33.10
5130;DHT22;2583;50.946;6.954;2023-03-25T13:45:53;13.30;35.70
5130;DHT22;2583;50.946;6.954;2023-03-25T13:48:37;13.10;35.10
5130;DHT22;2583;50.946;6.954;2023-03-25T13:51:06;12.90;38.60
5130;DHT22;2583;50.946;6.954;2023-03-25T13:53:58;12.70;48.00
5130;DHT22;2583;50.946;6.954;2023-03-25T13:56:39;12.20;91.60
5130;DHT22;2583;50.946;6.954;2023-03-25T14:02:14;10.60;99.90
5130;DHT22;2583;50.946;6.954;2023-03-25T14:08:12;10.10;99.90
5130;DHT22;2583;50.946;6.954;2023-03-25T14:13:47;9.80;99.90
5130;DHT22;2583;50.946;6.954;2023-03-25T14:16:26;9.90;99.90
5130;DHT22;2583;50.946;6.954;2023-03-25T14:18:59;10.00;99.90
5130;DHT22;2583;50.946;6.954;2023-03-25T14:24:30;10.40;99.90
5130;DHT22;2583;50.946;6.954;2023-03-25T14:29:44;10.90;99.90
5130;DHT22;2583;50.946;6.954;2023-03-25T14:34:43;11.10;99.90
5130;DHT22;2583;50.946;6.954;2023-03-25T14:37:30;11.20;99.90
5130;DHT22;2583;50.946;6.954;2023-03-25T14:39:59;11.30;99.90
5130;DHT22;2583;50.946;6.954;2023-03-25T14:43:16;11.30;99.90
5130;DHT22;2583;50.946;6.954;2023-03-25T14:47:58;11.50;99.90
5130;DHT22;2583;50.946;6.954;2023-03-25T14:53:04;11.60;99.90
5130;DHT22;2583;50.946;6.954;2023-03-25T14:55:40;11.60;99.90
5130;DHT22;2583;50.946;6.954;2023-03-25T14:58:22;11.70;99.90
5130;DHT22;2583;50.946;6.954;2023-03-25T15:00:55;11.90;99.90
5130;DHT22;2583;50.946;6.954;2023-03-25T15:03:35;12.10;99.90
5130;DHT22;2583;50.946;6.954;2023-03-25T15:06:05;12.10;99.90
5130;DHT22;2583;50.946;6.954;2023-03-25T15:08:39;12.30;99.90
5130;DHT22;2583;50.946;6.954;2023-03-25T15:11:15;12.40;99.80
5130;DHT22;2583;50.946;6.954;2023-03-25T15:13:46;12.10;98.40
5130;DHT22;2583;50.946;6.954;2023-03-25T15:16:31;12.00;99.90
5130;DHT22;2583;50.946;6.954;2023-03-25T15:19:04;11.90;99.90
5130;DHT22;2583;50.946;6.954;2023-03-25T15:22:20;11.80;99.90
5130;DHT22;2583;50.946;6.954;2023-03-25T15:24:31;11.70;99.90
5130;DHT22;2583;50.946;6.954;2023-03-25T15:27:34;11.50;99.90
5130;DHT22;2583;50.946;6.954;2023-03-25T15:41:30;11.10;99.90
5130;DHT22;2583;50.946;6.954;2023-03-25T15:52:16;10.60;99.90
5130;DHT22;2583;50.946;6.954;2023-03-25T15:54:54;10.70;99.90
5130;DHT22;2583;50.946;6.954;2023-03-25T15:57:29;10.70;99.90
5130;DHT22;2583;50.946;6.954;2023-03-25T16:00:05;10.90;99.90
5130;DHT22;2583;50.946;6.954;2023-03-25T16:05:17;11.00;99.90
5130;DHT22;2583;50.946;6.954;2023-03-25T16:07:45;11.10;99.90
5130;DHT22;2583;50.946;6.954;2023-03-25T16:10:19;11.10;99.90
5130;DHT22;2583;50.946;6.954;2023-03-25T16:12:48;11.20;99.90
5130;DHT22;2583;50.946;6.954;2023-03-25T16:15:16;11.20;99.90
5130;DHT22;2583;50.946;6.954;2023-03-25T16:17:44;11.20;98.70
5130;DHT22;2583;50.946;6.954;2023-03-25T16:20:16;11.30;99.90
5130;DHT22;2583;50.946;6.954;2023-03-25T16:22:48;11.30;99.90
5130;DHT22;2583;50.946;6.954;2023-03-25T16:25:23;11.30;99.90
5130;DHT22;2583;50.946;6.954;2023-03-25T16:27:56;11.10;99.90
5130;DHT22;2583;50.946;6.954;2023-03-25T16:30:27;10.90;99.90
5130;DHT22;2583;50.946;6.954;2023-03-25T16:35:41;10.60;99.90
5130;DHT22;2583;50.946;6.954;2023-03-25T16:38:18;10.50;99.90
5130;DHT22;2583;50.946;6.954;2023-03-25T16:40:45;10.40;99.90
5130;DHT22;2583;50.946;6.954;2023-03-25T16:45:44;10.40;99.90
5130;DHT22;2583;50.946;6.954;2023-03-25T16:48:17;10.40;99.90
5130;DHT22;2583;50.946;6.954;2023-03-25T16:50:45;10.50;99.90
5130;DHT22;2583;50.946;6.954;2023-03-25T16:53:14;10.70;99.90
5130;DHT22;2583;50.946;6.954;2023-03-25T16:58:19;10.90;99.90
5130;DHT22;2583;50.946;6.954;2023-03-25T17:00:49;11.10;97.60
5130;DHT22;2583;50.946;6.954;2023-03-25T17:03:37;11.10;99.70
5130;DHT22;2583;50.946;6.954;2023-03-25T17:06:22;11.10;99.90
5130;DHT22;2583;50.946;6.954;2023-03-25T17:08:56;11.00;99.90
5130;DHT22;2583;50.946;6.954;2023-03-25T17:11:29;10.90;99.90
5130;DHT22;2583;50.946;6.954;2023-03-25T17:13:59;10.70;99.90
5130;DHT22;2583;50.946;6.954;2023-03-25T17:16:30;10.50;99.90
5130;DHT22;2583;50.946;6.954;2023-03-25T17:18:58;10.40;99.90
5130;DHT22;2583;50.946;6.954;2023-03-25T17:21:29;10.20;99.90
5130;DHT22;2583;50.946;6.954;2023-03-25T17:24:00;10.10;99.90
5130;DHT22;2583;50.946;6.954;2023-03-25T17:27:17;10.10;99.90
5130;DHT22;2583;50.946;6.954;2023-03-25T17:29:57;10.00;99.90
5130;DHT22;2583;50.946;6.954;2023-03-25T17:32:24;10.00;99.90
5130;DHT22;2583;50.946;6.954;2023-03-25T17:34:57;10.00;99.90
5130;DHT22;2583;50.946;6.954;2023-03-25T17:37:27;10.10;99.90
5130;DHT22;2583;50.946;6.954;2023-03-25T17:39:57;10.00;99.90
5130;DHT22;2583;50.946;6.954;2023-03-25T17:42:25;10.00;99.90
5130;DHT22;2583;50.946;6.954;2023-03-25T17:44:52;10.10;99.90
5130;DHT22;2583;50.946;6.954;2023-03-25T17:47:20;10.20;99.90
5130;DHT22;2583;50.946;6.954;2023-03-25T17:49:49;10.20;99.90
5130;DHT22;2583;50.946;6.954;2023-03-25T17:52:17;10.20;99.90
5130;DHT22;2583;50.946;6.954;2023-03-25T17:54:45;10.30;99.90
5130;DHT22;2583;50.946;6.954;2023-03-25T17:57:17;10.30;99.90
5130;DHT22;2583;50.946;6.954;2023-03-25T17:59:45;10.50;99.90
5130;DHT22;2583;50.946;6.954;2023-03-25T18:02:14;10.60;99.90
5130;DHT22;2583;50.946;6.954;2023-03-25T18:04:42;10.50;99.90
5130;DHT22;2583;50.946;6.954;2023-03-25T18:07:09;10.50;99.90
5130;DHT22;2583;50.946;6.954;2023-03-25T18:09:37;10.50;99.90
5130;DHT22;2583;50.946;6.954;2023-03-25T18:12:05;10.20;99.90
5130;DHT22;2583;50.946;6.954;2023-03-25T18:14:32;9.80;99.90
5130;DHT22;2583;50.946;6.954;2023-03-25T18:17:00;9.50;99.90
5130;DHT22;2583;50.946;6.954;2023-03-25T18:19:29;9.20;99.90
5130;DHT22;2583;50.946;6.954;2023-03-25T18:21:57;9.00;99.90
5130;DHT22;2583;50.946;6.954;2023-03-25T18:24:36;9.00;99.90
5130;DHT22;2583;50.946;6.954;2023-03-25T18:27:02;8.90;99.90
5130;DHT22;2583;50.946;6.954;2023-03-25T18:29:33;8.90;99.90
5130;DHT22;2583;50.946;6.954;2023-03-25T18:32:02;8.90;99.90
5130;DHT22;2583;50.946;6.954;2023-03-25T18:34:29;8.90;99.90
5130;DHT22;2583;50.946;6.954;2023-03-25T18:36:56;9.00;99.90
5130;DHT22;2583;50.946;6.954;2023-03-25T18:39:25;9.00;99.90
5130;DHT22;2583;50.946;6.954;2023-03-25T18:41:53;8.90;99.90
5130;DHT22;2583;50.946;6.954;2023-03-25T18:44:20;8.90;99.90
5130;DHT22;2583;50.946;6.954;2023-03-25T18:46:47;8.90;99.90
5130;DHT22;2583;50.946;6.954;2023-03-25T18:49:17;8.90;99.90
5130;DHT22;2583;50.946;6.954;2023-03-25T18:51:44;8.80;99.90
5130;DHT22;2583;50.946;6.954;2023-03-25T18:54:14;8.70;99.90
5130;DHT22;2583;50.946;6.954;2023-03-25T18:56:42;8.60;99.90
5130;DHT22;2583;50.946;6.954;2023-03-25T18:59:15;8.50;99.90
5130;DHT22;2583;50.946;6.954;2023-03-25T19:01:44;8.40;99.90
5130;DHT22;2583;50.946;6.954;2023-03-25T19:04:11;8.30;99.90
5130;DHT22;2583;50.946;6.954;2023-03-25T19:06:38;8.30;99.90
5130;DHT22;2583;50.946;6.954;2023-03-25T19:09:06;8.30;99.90